Time;durP1;ratioP1;P1;durP2;ratioP2;P2;SDS_P1;SDS_P2;PMS_P1;PMS_P2;Temp;Humidity;BMP_temperature;BMP_pressure;BME280_temperature;BME280_humidity;BME280_pressure;Samples;Min_cycle;Max_cycle;Signal;HPM_P1;HPM_P2
2023/02/20 00:01:18;;;;;;;49.28;7.43;;;12.20;91.00;;;;;;5024048;28;20101;-58
2023/02/20 00:03:46;;;;;;;40.22;7.35;;;12.20;91.10;;;;;;5007906;28;20047;-57
2023/02/20 00:06:12;;;;;;;41.10;7.10;;;12.20;91.10;;;;;;5024421;28;20046;-57
2023/02/20 00:08:38;;;;;;;38.35;6.80;;;12.20;91.10;;;;;;5024104;28;20041;-57
2023/02/20 00:11:03;;;;;;;39.60;6.05;;;12.20;91.10;;;;;;5007734;28;20026;-57
2023/02/20 00:13:29;;;;;;;27.70;6.20;;;12.20;91.10;;;;;;5025035;28;20049;-57
2023/02/20 00:15:54;;;;;;;27.13;6.60;;;12.10;91.10;;;;;;5025408;28;20026;-57
2023/02/20 00:18:20;;;;;;;39.22;6.80;;;12.10;91.10;;;;;;5039951;28;20026;-57
2023/02/20 00:20:45;;;;;;;34.65;7.03;;;12.20;91.20;;;;;;5040312;28;20352;-58
2023/02/20 00:23:11;;;;;;;39.20;6.45;;;12.10;91.10;;;;;;5025091;28;20471;-57
2023/02/20 00:25:36;;;;;;;29.27;6.32;;;12.10;91.10;;;;;;5040147;28;20026;-57
2023/02/20 00:28:02;;;;;;;45.47;6.97;;;12.10;91.10;;;;;;5040189;28;20402;-57
2023/02/20 00:30:28;;;;;;;38.90;6.65;;;12.10;91.20;;;;;;5023931;28;20026;-57
2023/02/20 00:32:54;;;;;;;25.08;5.97;;;12.10;91.20;;;;;;5025092;28;20045;-57
2023/02/20 00:35:20;;;;;;;32.35;6.38;;;12.10;91.20;;;;;;5023783;28;20022;-57
2023/02/20 00:37:46;;;;;;;30.83;6.82;;;12.10;91.20;;;;;;5025019;28;20053;-57
2023/02/20 00:40:12;;;;;;;23.27;6.05;;;12.10;91.20;;;;;;5023915;28;20038;-57
2023/02/20 00:42:38;;;;;;;30.02;6.30;;;12.00;91.20;;;;;;5007355;28;20030;-57
2023/02/20 00:45:04;;;;;;;27.05;6.03;;;12.10;91.30;;;;;;5023800;28;20045;-57
2023/02/20 00:47:30;;;;;;;23.67;5.60;;;12.00;91.20;;;;;;5039847;28;20034;-57
2023/02/20 00:49:55;;;;;;;29.13;5.82;;;12.00;91.20;;;;;;5025068;28;20382;-57
2023/02/20 00:52:21;;;;;;;31.58;6.75;;;12.00;91.30;;;;;;5024870;28;20380;-57
2023/02/20 00:54:46;;;;;;;28.85;5.38;;;12.00;91.30;;;;;;5023678;28;20441;-57
2023/02/20 00:57:12;;;;;;;31.65;6.15;;;12.00;91.30;;;;;;5023574;28;20018;-57
2023/02/20 00:59:37;;;;;;;24.17;5.35;;;12.00;91.30;;;;;;5024801;28;20418;-57
2023/02/20 01:02:03;;;;;;;23.20;5.35;;;12.00;91.30;;;;;;5024688;28;20156;-57
2023/02/20 01:04:28;;;;;;;22.60;5.13;;;12.00;91.30;;;;;;5023543;28;20026;-57
2023/02/20 01:06:54;;;;;;;29.52;5.72;;;11.90;91.30;;;;;;5024825;28;20057;-57
2023/02/20 01:09:19;;;;;;;21.45;5.75;;;12.00;91.30;;;;;;5039888;28;20116;-57
2023/02/20 01:11:45;;;;;;;20.52;5.18;;;12.00;91.30;;;;;;5023566;28;20041;-57
2023/02/20 01:14:11;;;;;;;24.77;5.38;;;12.00;91.30;;;;;;5023201;28;20030;-57
2023/02/20 01:16:42;;;;;;;27.15;5.40;;;11.90;91.30;;;;;;5024819;28;20053;-57
2023/02/20 01:19:07;;;;;;;21.63;5.13;;;11.90;91.30;;;;;;5023330;28;20037;-57
2023/02/20 01:21:33;;;;;;;19.45;4.75;;;11.90;91.30;;;;;;5039614;28;20025;-57
2023/02/20 01:23:58;;;;;;;29.90;5.70;;;11.90;91.30;;;;;;5024783;28;20025;-57
2023/02/20 01:26:24;;;;;;;28.88;5.68;;;11.90;91.30;;;;;;5027029;28;20081;-57
2023/02/20 01:28:49;;;;;;;24.35;4.63;;;11.90;91.30;;;;;;5026993;28;20034;-57
2023/02/20 01:31:15;;;;;;;20.55;5.35;;;11.90;91.40;;;;;;5010764;28;20030;-57
2023/02/20 01:33:41;;;;;;;21.15;4.78;;;11.90;91.40;;;;;;5026950;28;20048;-57
2023/02/20 01:36:07;;;;;;;21.27;5.05;;;11.90;91.40;;;;;;5010772;28;20022;-57
2023/02/20 01:38:33;;;;;;;20.92;4.70;;;11.90;91.40;;;;;;5010514;28;20033;-57
2023/02/20 01:40:58;;;;;;;20.40;4.50;;;11.90;91.40;;;;;;5028186;28;20485;-57
2023/02/20 01:43:24;;;;;;;26.30;5.32;;;11.80;91.30;;;;;;5028137;28;20036;-57
2023/02/20 01:45:49;;;;;;;20.20;4.82;;;11.90;91.40;;;;;;5026723;28;20367;-58
2023/02/20 01:48:24;;;;;;;20.73;4.82;;;11.80;91.30;;;;;;5027768;28;20038;-57
2023/02/20 01:50:51;;;;;;;17.50;4.63;;;11.80;91.40;;;;;;5010698;28;20038;-57
2023/02/20 01:53:18;;;;;;;17.30;4.68;;;11.80;91.30;;;;;;5010275;28;20113;-57
2023/02/20 01:55:57;;;;;;;21.50;5.25;;;11.80;91.40;;;;;;5010246;28;20088;-58
2023/02/20 01:58:28;;;;;;;19.40;5.15;;;11.80;91.40;;;;;;5026432;28;20032;-57
2023/02/20 02:00:55;;;;;;;22.67;4.45;;;11.80;91.40;;;;;;5026623;28;20026;-57
2023/02/20 02:03:25;;;;;;;13.30;3.70;;;11.80;91.40;;;;;;5010078;28;20038;-57
2023/02/20 02:05:57;;;;;;;19.58;4.63;;;11.80;91.40;;;;;;5026293;28;20033;-57
2023/02/20 02:08:23;;;;;;;26.25;4.82;;;11.80;91.40;;;;;;5010185;28;20037;-57
2023/02/20 02:10:58;;;;;;;19.98;4.63;;;11.80;91.40;;;;;;5026331;28;20026;-57
2023/02/20 02:13:24;;;;;;;23.45;4.45;;;11.80;91.40;;;;;;5026211;28;20096;-57
2023/02/20 02:15:51;;;;;;;15.13;4.63;;;11.70;91.40;;;;;;5027380;28;20050;-57
2023/02/20 02:18:24;;;;;;;13.65;4.78;;;11.70;91.40;;;;;;5027546;28;20104;-57
2023/02/20 02:21:10;;;;;;;17.33;4.28;;;11.80;91.40;;;;;;5026081;28;20029;-57
2023/02/20 02:24:14;;;;;;;23.38;4.43;;;11.70;91.40;;;;;;5027307;28;20041;-57
2023/02/20 02:26:51;;;;;;;18.67;4.50;;;11.70;91.40;;;;;;5026251;28;20030;-57
2023/02/20 02:29:36;;;;;;;14.25;3.80;;;11.70;91.40;;;;;;5026012;28;20030;-57
2023/02/20 02:32:30;;;;;;;17.02;4.70;;;11.70;91.50;;;;;;5027056;28;20371;-57
2023/02/20 02:34:56;;;;;;;13.27;3.38;;;11.70;91.50;;;;;;5025697;28;20133;-57
2023/02/20 02:37:52;;;;;;;14.10;3.75;;;11.70;91.50;;;;;;5026812;28;20030;-57
2023/02/20 02:40:34;;;;;;;17.45;3.90;;;11.70;91.40;;;;;;5027172;28;20026;-57
2023/02/20 02:43:09;;;;;;;17.98;3.97;;;11.60;91.40;;;;;;5025515;28;20030;-57
2023/02/20 02:45:42;;;;;;;20.55;3.97;;;11.70;91.80;;;;;;5025774;28;20112;-57
2023/02/20 02:48:10;;;;;;;17.27;4.30;;;11.70;91.50;;;;;;5025510;28;20038;-57
2023/02/20 02:50:38;;;;;;;12.00;3.97;;;11.70;91.50;;;;;;5025541;28;20037;-57
2023/02/20 02:53:04;;;;;;;13.57;4.00;;;11.70;91.50;;;;;;5025440;28;20049;-57
2023/02/20 02:55:32;;;;;;;15.93;3.38;;;11.60;91.50;;;;;;5009194;28;20470;-57
2023/02/20 02:57:58;;;;;;;13.55;3.88;;;11.60;91.50;;;;;;5009255;28;20386;-57
2023/02/20 03:00:26;;;;;;;16.33;4.47;;;11.60;91.50;;;;;;5009176;28;20038;-57
2023/02/20 03:03:09;;;;;;;15.95;3.92;;;11.60;91.50;;;;;;5009154;28;20105;-58
2023/02/20 03:05:45;;;;;;;8.02;3.03;;;11.60;91.60;;;;;;5026663;28;20521;-57
2023/02/20 03:08:30;;;;;;;16.02;4.13;;;11.60;91.60;;;;;;5026178;28;20052;-57
2023/02/20 03:11:04;;;;;;;11.20;3.38;;;11.60;91.60;;;;;;5011298;28;20034;-57
2023/02/20 03:16:16;;;;;;;12.57;3.70;;;11.60;91.60;;;;;;5025334;28;20032;-57
2023/02/20 03:18:42;;;;;;;12.73;3.72;;;11.60;91.60;;;;;;5008808;28;20041;-57
2023/02/20 03:21:14;;;;;;;14.45;3.67;;;11.60;91.60;;;;;;5008652;28;20034;-57
2023/02/20 03:23:42;;;;;;;12.73;3.40;;;11.60;91.60;;;;;;5008497;28;20551;-57
2023/02/20 03:26:21;;;;;;;8.07;3.08;;;11.60;91.60;;;;;;5025071;28;20148;-57
2023/02/20 03:28:51;;;;;;;14.60;3.10;;;11.50;91.60;;;;;;5010039;28;20052;-57
2023/02/20 03:31:20;;;;;;;17.83;3.42;;;11.60;91.60;;;;;;5008820;28;20034;-57
2023/02/20 03:45:04;;;;;;;11.60;2.67;;;11.60;91.50;;;;;;5025006;28;20114;-57
2023/02/20 03:47:29;;;;;;;12.25;3.08;;;11.60;91.50;;;;;;5007873;28;20038;-57
2023/02/20 03:49:55;;;;;;;11.48;2.92;;;11.50;91.50;;;;;;5007530;28;20037;-57
2023/02/20 03:52:20;;;;;;;9.98;2.95;;;11.50;91.50;;;;;;5007925;28;20033;-57
2023/02/20 03:54:46;;;;;;;14.63;3.05;;;11.50;91.50;;;;;;5008027;28;20052;-57
2023/02/20 03:57:14;;;;;;;12.18;3.10;;;11.50;91.50;;;;;;5024477;28;20022;-57
2023/02/20 03:59:45;;;;;;;12.30;2.55;;;11.60;91.50;;;;;;5024312;28;20042;-57
2023/02/20 04:02:21;;;;;;;11.18;3.17;;;11.50;91.30;;;;;;5008596;28;20026;-57
2023/02/20 04:04:48;;;;;;;10.68;3.17;;;11.50;91.30;;;;;;5024273;28;20034;-57
2023/02/20 04:07:18;;;;;;;14.98;2.80;;;11.50;91.30;;;;;;5007850;28;20056;-57
2023/02/20 04:09:44;;;;;;;11.10;2.75;;;11.50;91.30;;;;;;5008074;28;20037;-57
2023/02/20 04:12:20;;;;;;;8.00;2.85;;;11.50;91.30;;;;;;5024107;28;20048;-57
2023/02/20 04:14:46;;;;;;;12.85;2.65;;;11.50;91.40;;;;;;5008621;28;20026;-57
2023/02/20 04:17:13;;;;;;;10.27;2.90;;;11.50;91.40;;;;;;5023702;28;20077;-57
2023/02/20 04:19:39;;;;;;;8.52;2.85;;;11.40;91.40;;;;;;5007638;28;20022;-57
2023/02/20 04:22:06;;;;;;;9.15;2.55;;;11.40;91.40;;;;;;5007479;28;20501;-58
2023/02/20 04:24:41;;;;;;;9.55;2.90;;;11.40;91.40;;;;;;5007669;28;20108;-57
2023/02/20 04:27:06;;;;;;;12.98;2.88;;;11.40;91.40;;;;;;5009093;28;20099;-57
2023/02/20 04:29:32;;;;;;;6.93;2.20;;;11.40;91.50;;;;;;5007379;28;20046;-57
2023/02/20 04:31:57;;;;;;;9.10;2.63;;;11.40;91.40;;;;;;5023698;28;20049;-57
2023/02/20 04:34:23;;;;;;;11.52;2.50;;;11.40;91.40;;;;;;5007456;28;20037;-57
2023/02/20 04:36:49;;;;;;;8.45;2.53;;;11.40;91.50;;;;;;5007415;28;20078;-57
2023/02/20 04:39:15;;;;;;;10.40;3.28;;;11.40;91.50;;;;;;5023498;28;20017;-57
2023/02/20 04:41:40;;;;;;;8.85;2.97;;;11.30;91.50;;;;;;5024864;28;20393;-57
2023/02/20 04:46:50;;;;;;;8.30;2.75;;;11.30;91.50;;;;;;5024813;28;20045;-57
2023/02/20 04:49:15;;;;;;;10.25;2.67;;;11.30;91.50;;;;;;5024750;28;20037;-57
2023/02/20 04:51:41;;;;;;;5.60;2.13;;;11.30;91.50;;;;;;5023465;28;20197;-57
2023/02/20 04:54:06;;;;;;;6.80;2.20;;;11.30;91.60;;;;;;5023624;28;20034;-57
2023/02/20 04:56:32;;;;;;;8.50;2.60;;;11.20;91.60;;;;;;5025036;28;20385;-57
2023/02/20 04:58:57;;;;;;;9.27;2.42;;;11.30;91.60;;;;;;5023535;28;20466;-57
2023/02/20 05:01:23;;;;;;;8.05;2.70;;;11.20;91.60;;;;;;5027297;28;20438;-57
2023/02/20 05:03:48;;;;;;;10.27;2.45;;;11.20;91.60;;;;;;5027572;28;20086;-57
2023/02/20 05:06:14;;;;;;;7.50;1.98;;;11.20;91.60;;;;;;5028806;28;20034;-57
2023/02/20 05:08:39;;;;;;;8.85;2.72;;;11.20;91.60;;;;;;5027391;28;20057;-57
2023/02/20 05:11:05;;;;;;;8.38;2.30;;;11.10;91.60;;;;;;5043888;28;20413;-57
2023/02/20 05:13:30;;;;;;;6.70;2.30;;;11.20;91.60;;;;;;5028464;28;20062;-58
2023/02/20 05:15:56;;;;;;;9.48;2.90;;;11.10;91.60;;;;;;5028655;28;20037;-57
2023/02/20 05:18:26;;;;;;;7.78;2.65;;;11.10;91.70;;;;;;5027263;28;20026;-57
2023/02/20 05:23:49;;;;;;;5.97;2.13;;;11.10;91.60;;;;;;5037956;28;20058;-57
2023/02/20 05:26:20;;;;;;;5.53;2.13;;;11.10;91.60;;;;;;5027106;28;20026;-57
2023/02/20 05:28:45;;;;;;;7.45;2.47;;;11.10;91.60;;;;;;5010452;28;20033;-57
2023/02/20 05:31:11;;;;;;;7.07;2.50;;;11.00;91.60;;;;;;5027101;28;20108;-57
2023/02/20 05:33:36;;;;;;;8.90;2.20;;;11.00;91.60;;;;;;5026931;28;20057;-57
2023/02/20 05:36:02;;;;;;;6.60;2.08;;;11.00;91.60;;;;;;5028504;28;20045;-57
2023/02/20 05:38:28;;;;;;;7.88;2.42;;;11.00;91.60;;;;;;5026799;28;20030;-57
2023/02/20 05:40:53;;;;;;;8.50;2.53;;;11.00;91.60;;;;;;5028302;28;20037;-57
2023/02/20 05:43:19;;;;;;;7.07;2.38;;;10.90;91.60;;;;;;5026845;28;20113;-57
2023/02/20 05:45:45;;;;;;;10.63;2.78;;;10.90;91.60;;;;;;5026832;28;20030;-57
2023/02/20 05:48:11;;;;;;;5.22;2.40;;;10.90;91.60;;;;;;5026757;28;20034;-57
2023/02/20 05:50:36;;;;;;;8.70;2.55;;;10.80;91.50;;;;;;5026555;28;20470;-57
2023/02/20 05:53:02;;;;;;;9.52;2.50;;;10.80;91.60;;;;;;5010209;28;20034;-57
2023/02/20 05:55:29;;;;;;;5.57;2.40;;;10.80;91.50;;;;;;5043066;28;20530;-57
2023/02/20 05:57:55;;;;;;;6.47;2.40;;;10.80;91.50;;;;;;5027807;28;20029;-57
2023/02/20 06:00:21;;;;;;;6.18;2.50;;;10.80;91.50;;;;;;5010430;28;20045;-57
2023/02/20 06:02:47;;;;;;;5.50;2.38;;;10.80;91.50;;;;;;5027985;28;20037;-57
2023/02/20 06:05:12;;;;;;;5.05;2.50;;;10.70;91.50;;;;;;5027836;28;20037;-57
2023/02/20 06:07:38;;;;;;;5.93;2.40;;;10.70;91.50;;;;;;5009941;28;20026;-57
2023/02/20 06:10:03;;;;;;;5.35;2.53;;;10.70;91.40;;;;;;5027593;28;20109;-57
2023/02/20 06:12:29;;;;;;;6.57;2.63;;;10.60;91.40;;;;;;5025512;28;20148;-57
2023/02/20 06:14:54;;;;;;;4.63;2.40;;;10.70;91.50;;;;;;5026134;28;20029;-57
2023/02/20 06:17:20;;;;;;;8.02;2.88;;;10.60;91.50;;;;;;5009737;28;20026;-57
2023/02/20 06:19:46;;;;;;;8.02;2.55;;;10.60;91.50;;;;;;5027614;28;20022;-57
2023/02/20 06:22:11;;;;;;;6.30;2.13;;;10.60;91.50;;;;;;5026191;28;20018;-57
2023/02/20 06:24:37;;;;;;;8.57;2.35;;;10.50;91.50;;;;;;5009251;28;20544;-57
2023/02/20 06:27:02;;;;;;;8.30;2.58;;;10.50;91.50;;;;;;5027189;28;20040;-56
2023/02/20 06:29:28;;;;;;;4.97;2.47;;;10.50;91.60;;;;;;5026057;28;20096;-57
2023/02/20 06:31:56;;;;;;;6.65;2.53;;;10.50;91.50;;;;;;5027293;28;20050;-57
2023/02/20 06:34:24;;;;;;;6.95;2.13;;;10.50;91.50;;;;;;5009858;28;20105;-57
2023/02/20 06:36:50;;;;;;;4.35;2.30;;;10.50;91.50;;;;;;5025967;28;20041;-57
2023/02/20 06:39:15;;;;;;;6.50;2.15;;;10.40;91.40;;;;;;5025913;28;20025;-57
2023/02/20 06:41:41;;;;;;;5.13;2.35;;;10.40;91.50;;;;;;5009480;28;20419;-57
2023/02/20 06:44:06;;;;;;;4.70;2.20;;;10.40;91.80;;;;;;5025637;28;20454;-57
2023/02/20 06:46:32;;;;;;;8.02;2.60;;;10.40;91.50;;;;;;5025563;28;20034;-56
2023/02/20 06:48:58;;;;;;;5.50;2.42;;;10.30;91.50;;;;;;5025368;28;20030;-57
2023/02/20 06:51:25;;;;;;;4.82;2.13;;;10.30;91.50;;;;;;5025589;28;20036;-57
2023/02/20 06:53:50;;;;;;;9.65;2.90;;;10.30;91.50;;;;;;5025608;28;20037;-57
2023/02/20 06:56:18;;;;;;;3.97;2.15;;;10.30;91.50;;;;;;5027459;28;20034;-58
2023/02/20 06:58:48;;;;;;;6.63;2.17;;;10.30;91.50;;;;;;5009591;28;20121;-57
2023/02/20 07:01:14;;;;;;;5.57;2.38;;;10.30;91.50;;;;;;5025431;28;20030;-57
2023/02/20 07:03:40;;;;;;;9.60;2.70;;;10.30;91.50;;;;;;5009152;28;20049;-57
2023/02/20 07:06:06;;;;;;;5.63;2.10;;;10.30;91.50;;;;;;5025497;28;20173;-58
2023/02/20 07:08:31;;;;;;;10.60;2.42;;;10.30;91.50;;;;;;5008948;28;20089;-57
2023/02/20 07:10:57;;;;;;;12.02;2.70;;;10.30;91.50;;;;;;5008851;28;20041;-58
2023/02/20 07:13:22;;;;;;;14.20;3.05;;;10.20;91.40;;;;;;5024819;28;20026;-57
2023/02/20 07:15:48;;;;;;;8.13;2.38;;;10.30;91.40;;;;;;5008851;28;20037;-57
2023/02/20 07:18:16;;;;;;;7.35;2.50;;;10.20;91.40;;;;;;5041365;28;20379;-57
2023/02/20 07:20:41;;;;;;;13.30;2.85;;;10.20;91.40;;;;;;5026232;28;20034;-57
2023/02/20 07:23:07;;;;;;;14.82;2.92;;;10.20;91.40;;;;;;5023986;28;20117;-57
2023/02/20 07:25:32;;;;;;;10.90;2.53;;;10.20;91.40;;;;;;5041176;28;20033;-57
2023/02/20 07:27:58;;;;;;;8.50;2.28;;;10.20;91.50;;;;;;5024654;28;20113;-57
2023/02/20 07:30:24;;;;;;;8.55;2.42;;;10.20;91.40;;;;;;5041231;28;20041;-57
2023/02/20 07:32:50;;;;;;;15.52;2.80;;;10.10;91.40;;;;;;5040954;28;20030;-57
2023/02/20 07:35:15;;;;;;;27.58;3.72;;;10.20;91.50;;;;;;5025039;28;20109;-57
2023/02/20 07:37:41;;;;;;;14.55;3.17;;;10.20;91.50;;;;;;5024895;28;20022;-58
2023/02/20 07:40:07;;;;;;;9.95;2.85;;;10.20;91.50;;;;;;5040869;28;20065;-57
2023/02/20 07:42:32;;;;;;;14.25;3.63;;;10.10;91.50;;;;;;5024138;28;20093;-56
2023/02/20 07:44:58;;;;;;;15.05;3.30;;;10.10;91.50;;;;;;5041440;28;20033;-56
2023/02/20 07:47:23;;;;;;;27.15;3.90;;;10.10;91.50;;;;;;5043886;28;20049;-55
2023/02/20 07:49:49;;;;;;;16.73;3.47;;;10.10;91.50;;;;;;5045562;28;20029;-55
2023/02/20 07:52:14;;;;;;;22.58;3.97;;;10.10;91.60;;;;;;5043843;28;20026;-55
2023/02/20 07:54:40;;;;;;;20.45;3.80;;;10.10;91.50;;;;;;5044114;28;20029;-55
2023/02/20 07:57:05;;;;;;;13.88;3.30;;;10.10;91.50;;;;;;5043681;28;20535;-56
2023/02/20 07:59:31;;;;;;;16.30;3.65;;;10.10;91.50;;;;;;5044185;28;20016;-55
2023/02/20 08:01:56;;;;;;;19.88;3.20;;;10.10;91.50;;;;;;5044041;28;20030;-55
2023/02/20 08:04:22;;;;;;;20.88;4.20;;;10.10;91.50;;;;;;5045270;28;20029;-55
2023/02/20 08:06:48;;;;;;;20.55;3.72;;;10.10;91.60;;;;;;5044916;28;20018;-55
2023/02/20 08:09:13;;;;;;;26.15;4.03;;;10.10;91.60;;;;;;5043812;28;20079;-56
2023/02/20 08:11:39;;;;;;;13.98;3.67;;;10.10;91.60;;;;;;5027184;28;20021;-55
2023/02/20 08:14:04;;;;;;;16.58;3.70;;;10.10;91.60;;;;;;5043879;28;20085;-55
2023/02/20 08:16:30;;;;;;;9.82;2.58;;;10.10;91.60;;;;;;5043806;28;20021;-55
2023/02/20 08:18:55;;;;;;;16.63;3.58;;;10.10;91.90;;;;;;5027038;28;20036;-55
2023/02/20 08:21:21;;;;;;;19.27;3.58;;;10.00;91.60;;;;;;5044949;28;20418;-55
2023/02/20 08:23:47;;;;;;;13.35;3.42;;;10.00;91.60;;;;;;5043633;28;20358;-55
2023/02/20 08:26:12;;;;;;;19.02;3.47;;;10.10;91.70;;;;;;5045122;28;20033;-55
2023/02/20 08:28:38;;;;;;;13.10;3.30;;;10.10;91.70;;;;;;5043739;28;20022;-55
2023/02/20 08:31:04;;;;;;;14.07;3.38;;;10.10;91.70;;;;;;5044239;28;20074;-55
2023/02/20 08:33:29;;;;;;;19.90;3.65;;;10.10;91.70;;;;;;5045305;28;20085;-55
2023/02/20 08:35:56;;;;;;;12.82;3.47;;;10.00;91.60;;;;;;5043264;28;20045;-55
2023/02/20 08:38:26;;;;;;;15.18;3.60;;;10.10;91.70;;;;;;5045161;28;20022;-55
2023/02/20 08:40:52;;;;;;;12.48;3.88;;;10.00;91.70;;;;;;5045145;28;20030;-55
2023/02/20 08:43:17;;;;;;;13.95;3.22;;;10.10;91.70;;;;;;5043608;28;20082;-55
2023/02/20 08:45:43;;;;;;;10.38;3.22;;;10.00;91.70;;;;;;5044749;28;20101;-56
2023/02/20 08:48:08;;;;;;;8.27;2.97;;;10.10;91.70;;;;;;5043329;28;20045;-55
2023/02/20 08:50:34;;;;;;;11.30;2.97;;;10.10;91.70;;;;;;5043411;28;20120;-56
2023/02/20 08:52:59;;;;;;;8.07;3.40;;;10.10;91.70;;;;;;5043172;28;20029;-56
2023/02/20 08:55:25;;;;;;;8.43;3.25;;;10.10;91.70;;;;;;5026760;28;20030;-55
2023/02/20 08:57:50;;;;;;;11.45;3.35;;;10.10;91.70;;;;;;5044598;28;20036;-55
2023/02/20 09:00:17;;;;;;;12.48;3.60;;;10.10;91.70;;;;;;5044586;28;20025;-56
2023/02/20 09:02:45;;;;;;;14.77;3.10;;;10.10;91.70;;;;;;5043253;28;20364;-55
2023/02/20 09:05:10;;;;;;;14.90;3.95;;;10.10;91.70;;;;;;5043359;28;20034;-55
2023/02/20 09:07:36;;;;;;;15.10;3.90;;;10.10;91.70;;;;;;5044600;28;20519;-55
2023/02/20 09:10:02;;;;;;;38.03;4.93;;;10.10;91.70;;;;;;5043098;28;20477;-55
2023/02/20 09:12:27;;;;;;;16.67;4.07;;;10.20;91.80;;;;;;5043132;28;20033;-56
2023/02/20 09:14:53;;;;;;;17.63;4.82;;;10.20;92.00;;;;;;5043193;28;20108;-55
2023/02/20 09:17:18;;;;;;;16.88;4.28;;;10.20;91.70;;;;;;5043003;28;20036;-55
2023/02/20 09:19:44;;;;;;;21.05;4.03;;;10.20;91.70;;;;;;5043094;28;20075;-55
2023/02/20 09:22:09;;;;;;;35.55;5.22;;;10.20;91.70;;;;;;5043049;28;20378;-55
2023/02/20 09:24:35;;;;;;;25.30;4.38;;;10.20;91.70;;;;;;5044389;28;20334;-55
2023/02/20 09:27:07;;;;;;;28.90;5.05;;;10.20;91.70;;;;;;5044672;28;20481;-55
2023/02/20 09:29:35;;;;;;;28.20;4.72;;;10.30;91.80;;;;;;5043292;28;20056;-55
2023/02/20 09:32:01;;;;;;;32.50;5.25;;;10.30;91.80;;;;;;5043025;28;20021;-55
2023/02/20 09:34:26;;;;;;;28.83;5.30;;;10.30;91.80;;;;;;5043484;28;20040;-55
2023/02/20 09:36:52;;;;;;;28.35;5.28;;;10.30;91.80;;;;;;5044519;28;20021;-55
2023/02/20 09:39:18;;;;;;;37.88;5.40;;;10.30;91.80;;;;;;5026648;28;20124;-55
2023/02/20 09:42:14;;;;;;;52.05;6.47;;;10.30;91.70;;;;;;5044437;28;20040;-56
2023/02/20 09:44:55;;;;;;;25.77;5.50;;;10.30;91.70;;;;;;5044147;28;20026;-56
2023/02/20 09:47:51;;;;;;;34.55;4.55;;;10.40;91.70;;;;;;5045258;28;20029;-55
2023/02/20 09:50:32;;;;;;;63.72;7.93;;;10.30;91.70;;;;;;5046481;28;20036;-55
2023/02/20 09:53:02;;;;;;;44.25;6.97;;;10.40;91.70;;;;;;5046155;28;20037;-55
2023/02/20 09:55:31;;;;;;;52.92;7.15;;;10.40;91.70;;;;;;5046338;28;20446;-55
2023/02/20 09:57:56;;;;;;;46.17;7.38;;;10.40;91.70;;;;;;5029751;28;20060;-55
2023/02/20 10:00:33;;;;;;;57.38;8.55;;;10.40;91.70;;;;;;5046092;28;20025;-56
2023/02/20 10:03:14;;;;;;;58.13;7.78;;;10.40;91.60;;;;;;5045993;28;20049;-55
2023/02/20 10:05:41;;;;;;;64.70;8.05;;;10.50;91.70;;;;;;5047157;28;20103;-55
2023/02/20 10:08:09;;;;;;;48.15;7.85;;;10.50;91.80;;;;;;5045759;28;20085;-55
2023/02/20 10:10:38;;;;;;;67.63;8.75;;;10.50;91.80;;;;;;5045848;28;20097;-55
2023/02/20 10:13:37;;;;;;;62.13;9.27;;;10.50;91.80;;;;;;5047193;28;20087;-55
2023/02/20 10:16:24;;;;;;;75.85;10.23;;;10.50;91.80;;;;;;5045688;28;20045;-55
2023/02/20 10:18:56;;;;;;;48.42;9.38;;;10.50;91.80;;;;;;5047574;28;20021;-56
2023/02/20 10:21:53;;;;;;;62.50;7.90;;;10.60;91.80;;;;;;5047289;28;20059;-55
2023/02/20 10:24:31;;;;;;;94.13;13.43;;;10.60;91.70;;;;;;5045860;28;20093;-55
2023/02/20 10:27:03;;;;;;;81.38;9.68;;;10.60;91.90;;;;;;5045724;28;20029;-55
2023/02/20 10:29:30;;;;;;;125.22;14.95;;;10.60;92.00;;;;;;5045324;28;20026;-55
2023/02/20 10:32:04;;;;;;;82.72;11.63;;;10.70;92.00;;;;;;5045091;28;20394;-55
2023/02/20 10:34:41;;;;;;;112.35;13.88;;;10.70;92.00;;;;;;5045554;28;20044;-55
2023/02/20 10:37:15;;;;;;;86.25;13.50;;;10.70;92.00;;;;;;5045479;28;20114;-55
2023/02/20 10:39:47;;;;;;;124.82;12.85;;;10.70;92.00;;;;;;5045421;28;20033;-55
2023/02/20 10:42:29;;;;;;;92.25;13.55;;;10.70;92.00;;;;;;5045285;28;20025;-55
2023/02/20 10:45:26;;;;;;;92.72;11.70;;;10.80;92.00;;;;;;5045313;28;20052;-55
2023/02/20 10:48:23;;;;;;;86.70;12.55;;;10.80;91.90;;;;;;5043577;28;20124;-56
2023/02/20 10:51:08;;;;;;;77.63;12.13;;;10.80;91.90;;;;;;5062756;28;20045;-55
2023/02/20 10:53:43;;;;;;;117.47;12.35;;;10.80;92.00;;;;;;5063159;28;20041;-56
2023/02/20 10:56:23;;;;;;;177.02;19.02;;;10.70;92.00;;;;;;5065696;28;20033;-55
2023/02/20 10:58:52;;;;;;;148.95;18.10;;;10.80;92.10;;;;;;5063675;28;20032;-56
2023/02/20 11:01:22;;;;;;;116.32;15.48;;;10.90;92.10;;;;;;5064467;28;20108;-55
2023/02/20 11:04:00;;;;;;;125.85;14.32;;;10.90;92.10;;;;;;5064616;28;20036;-55
2023/02/20 11:06:30;;;;;;;136.88;16.85;;;10.90;92.10;;;;;;5064557;28;20040;-55
2023/02/20 11:08:56;;;;;;;164.43;18.85;;;11.00;92.10;;;;;;5048140;28;20028;-55
2023/02/20 11:11:34;;;;;;;156.75;16.67;;;10.90;92.10;;;;;;5065817;28;20029;-56
2023/02/20 11:14:01;;;;;;;127.82;15.25;;;11.00;92.10;;;;;;5064256;28;20025;-55
2023/02/20 11:16:30;;;;;;;81.70;12.60;;;11.00;92.20;;;;;;5064422;28;20032;-55
2023/02/20 11:19:11;;;;;;;99.32;12.88;;;11.00;92.20;;;;;;5064124;28;20037;-55
2023/02/20 11:21:39;;;;;;;114.55;13.20;;;11.00;92.20;;;;;;5046580;28;20096;-56
2023/02/20 11:24:18;;;;;;;132.85;15.52;;;11.00;92.20;;;;;;5062037;28;20127;-55
2023/02/20 11:26:43;;;;;;;119.18;14.60;;;11.10;92.50;;;;;;5061749;28;20103;-55
2023/02/20 11:29:09;;;;;;;104.70;13.00;;;11.10;92.20;;;;;;5045271;28;20153;-55
2023/02/20 11:31:34;;;;;;;104.50;13.63;;;11.10;92.10;;;;;;5061549;28;20088;-55
2023/02/20 11:34:00;;;;;;;97.15;12.90;;;11.10;92.00;;;;;;5062150;28;20045;-56
2023/02/20 11:36:27;;;;;;;91.70;11.65;;;11.10;92.00;;;;;;5061893;28;20139;-56
2023/02/20 11:38:58;;;;;;;64.40;9.77;;;11.20;92.00;;;;;;5062260;28;20056;-56
2023/02/20 11:41:35;;;;;;;75.45;11.80;;;11.20;91.80;;;;;;5063957;28;20180;-55
2023/02/20 11:44:23;;;;;;;97.47;13.13;;;11.20;91.80;;;;;;5064136;28;20025;-55
2023/02/20 11:47:08;;;;;;;109.43;12.82;;;11.20;91.80;;;;;;5064054;28;20057;-56
2023/02/20 11:49:33;;;;;;;97.47;12.10;;;11.20;92.00;;;;;;5063653;28;20139;-56
2023/02/20 11:52:25;;;;;;;84.55;11.50;;;11.30;92.00;;;;;;5063787;28;20029;-56
2023/02/20 11:55:20;;;;;;;76.85;10.98;;;11.30;91.90;;;;;;5063965;28;20052;-55
2023/02/20 11:57:46;;;;;;;96.53;13.35;;;11.30;91.70;;;;;;5065217;28;20028;-56
2023/02/20 12:00:20;;;;;;;98.93;11.85;;;11.30;91.70;;;;;;5063891;28;20119;-56
2023/02/20 12:02:48;;;;;;;76.55;9.68;;;11.30;91.70;;;;;;5063852;28;20053;-56
2023/02/20 12:05:14;;;;;;;66.07;10.52;;;11.40;91.70;;;;;;5064186;28;20465;-56
2023/02/20 12:07:57;;;;;;;66.82;10.15;;;11.40;91.60;;;;;;5063785;28;20036;-56
2023/02/20 12:10:34;;;;;;;101.43;12.15;;;11.40;91.60;;;;;;5063307;28;20029;-56
2023/02/20 12:13:00;;;;;;;100.40;14.73;;;11.40;91.60;;;;;;5057874;28;20527;-55
2023/02/20 12:15:26;;;;;;;88.20;10.38;;;11.50;91.70;;;;;;5026496;28;20029;-56
2023/02/20 12:18:11;;;;;;;81.70;10.15;;;11.50;91.60;;;;;;5044333;28;20029;-56
2023/02/20 12:20:38;;;;;;;92.30;11.80;;;11.50;91.50;;;;;;5044690;28;20029;-55
2023/02/20 12:23:09;;;;;;;96.95;12.65;;;11.30;91.30;;;;;;5026698;28;20064;-55
2023/02/20 12:25:40;;;;;;;106.50;12.32;;;11.60;91.50;;;;;;5038656;28;20029;-56
2023/02/20 12:28:26;;;;;;;87.18;10.45;;;11.60;91.50;;;;;;5044203;28;20041;-55
2023/02/20 12:31:09;;;;;;;81.32;11.85;;;11.70;91.40;;;;;;5043195;28;20051;-56
2023/02/20 12:33:39;;;;;;;85.32;11.05;;;11.70;91.30;;;;;;5042776;28;20068;-56
2023/02/20 12:36:27;;;;;;;63.70;10.45;;;11.70;91.40;;;;;;5043297;28;20097;-55
2023/02/20 12:39:19;;;;;;;68.07;8.57;;;11.70;91.30;;;;;;5026625;28;20032;-56
2023/02/20 12:42:05;;;;;;;82.97;11.15;;;11.70;91.10;;;;;;5043030;28;20044;-55
2023/02/20 12:44:58;;;;;;;81.53;10.65;;;11.70;91.20;;;;;;5041502;28;20434;-55
2023/02/20 12:47:37;;;;;;;81.90;10.23;;;11.80;91.30;;;;;;5036702;28;20030;-56
2023/02/20 12:50:09;;;;;;;111.07;13.70;;;11.80;91.20;;;;;;5042741;28;20041;-56
2023/02/20 12:52:51;;;;;;;98.10;11.38;;;11.80;91.30;;;;;;5042972;28;20493;-56
2023/02/20 12:55:29;;;;;;;81.32;11.48;;;11.90;91.30;;;;;;5042840;28;20026;-55
2023/02/20 12:58:25;;;;;;;84.22;9.23;;;11.90;91.20;;;;;;5044317;28;20100;-56
2023/02/20 13:00:52;;;;;;;73.72;9.38;;;11.90;91.10;;;;;;5044607;28;20038;-56
2023/02/20 13:03:40;;;;;;;114.75;15.02;;;11.90;91.10;;;;;;5040215;28;20516;-55
2023/02/20 13:06:06;;;;;;;113.18;12.55;;;12.00;91.10;;;;;;5042571;28;20100;-55
2023/02/20 13:08:34;;;;;;;178.35;18.55;;;12.00;91.00;;;;;;5026492;28;20567;-56